sensor_id;sensor_type;location;lat;lon;timestamp;pressure;altitude;pressure_sealevel;temperature;humidity
62928;BME280;51070;52.236;-0.892;2023-03-03T00:01:12;101981.48;;;5.42;75.24
62928;BME280;51070;52.236;-0.892;2023-03-03T00:03:37;101984.37;;;5.42;75.04
62928;BME280;51070;52.236;-0.892;2023-03-03T00:06:03;101986.41;;;5.40;75.10
62928;BME280;51070;52.236;-0.892;2023-03-03T00:08:29;101986.92;;;5.37;75.04
62928;BME280;51070;52.236;-0.892;2023-03-03T00:10:56;101987.41;;;5.35;74.92
62928;BME280;51070;52.236;-0.892;2023-03-03T00:13:23;101989.52;;;5.33;75.10
62928;BME280;51070;52.236;-0.892;2023-03-03T00:15:48;101990.73;;;5.31;74.96
62928;BME280;51070;52.236;-0.892;2023-03-03T00:18:30;101997.53;;;5.28;74.90
62928;BME280;51070;52.236;-0.892;2023-03-03T00:20:58;102004.09;;;5.24;74.94
62928;BME280;51070;52.236;-0.892;2023-03-03T00:23:35;102001.32;;;5.21;74.97
62928;BME280;51070;52.236;-0.892;2023-03-03T00:26:01;101999.83;;;5.22;75.13
62928;BME280;51070;52.236;-0.892;2023-03-03T00:30:54;101993.05;;;5.25;75.47
62928;BME280;51070;52.236;-0.892;2023-03-03T00:35:57;101991.70;;;5.30;75.15
62928;BME280;51070;52.236;-0.892;2023-03-03T00:38:25;101993.89;;;5.32;75.24
62928;BME280;51070;52.236;-0.892;2023-03-03T00:40:51;101994.21;;;5.32;75.18
62928;BME280;51070;52.236;-0.892;2023-03-03T00:43:21;101986.65;;;5.31;75.22
62928;BME280;51070;52.236;-0.892;2023-03-03T00:45:56;101983.44;;;5.30;75.06
62928;BME280;51070;52.236;-0.892;2023-03-03T00:50:46;101987.77;;;5.28;75.23
62928;BME280;51070;52.236;-0.892;2023-03-03T00:53:13;101983.90;;;5.27;75.32
62928;BME280;51070;52.236;-0.892;2023-03-03T00:55:41;101980.32;;;5.25;75.13
62928;BME280;51070;52.236;-0.892;2023-03-03T00:58:07;101982.42;;;5.23;75.14
62928;BME280;51070;52.236;-0.892;2023-03-03T01:00:33;101978.64;;;5.20;75.41
62928;BME280;51070;52.236;-0.892;2023-03-03T01:03:02;101983.17;;;5.19;75.38
62928;BME280;51070;52.236;-0.892;2023-03-03T01:05:28;101988.17;;;5.17;75.35
62928;BME280;51070;52.236;-0.892;2023-03-03T01:07:54;101984.72;;;5.15;75.22
62928;BME280;51070;52.236;-0.892;2023-03-03T01:10:19;101986.16;;;5.13;75.41
62928;BME280;51070;52.236;-0.892;2023-03-03T01:12:44;101983.34;;;5.12;75.50
62928;BME280;51070;52.236;-0.892;2023-03-03T01:15:10;101988.52;;;5.13;75.52
62928;BME280;51070;52.236;-0.892;2023-03-03T01:17:36;101983.73;;;5.13;75.39
62928;BME280;51070;52.236;-0.892;2023-03-03T01:20:04;101985.36;;;5.14;75.53
62928;BME280;51070;52.236;-0.892;2023-03-03T01:22:30;101980.73;;;5.16;75.37
62928;BME280;51070;52.236;-0.892;2023-03-03T01:24:55;101981.80;;;5.19;75.53
62928;BME280;51070;52.236;-0.892;2023-03-03T01:27:20;101985.50;;;5.20;75.38
62928;BME280;51070;52.236;-0.892;2023-03-03T01:29:45;101985.30;;;5.20;75.06
62928;BME280;51070;52.236;-0.892;2023-03-03T01:32:11;101993.13;;;5.19;75.02
62928;BME280;51070;52.236;-0.892;2023-03-03T01:34:36;101993.52;;;5.18;75.03
62928;BME280;51070;52.236;-0.892;2023-03-03T01:37:02;101994.00;;;5.15;74.90
62928;BME280;51070;52.236;-0.892;2023-03-03T01:39:27;101991.16;;;5.14;74.99
62928;BME280;51070;52.236;-0.892;2023-03-03T01:41:52;101992.45;;;5.13;74.86
62928;BME280;51070;52.236;-0.892;2023-03-03T01:44:17;101989.36;;;5.08;74.50
62928;BME280;51070;52.236;-0.892;2023-03-03T01:49:16;101990.83;;;5.04;74.58
62928;BME280;51070;52.236;-0.892;2023-03-03T01:51:45;101994.18;;;5.05;74.27
62928;BME280;51070;52.236;-0.892;2023-03-03T01:54:13;101992.98;;;5.08;74.27
62928;BME280;51070;52.236;-0.892;2023-03-03T01:56:41;101995.98;;;5.11;74.39
62928;BME280;51070;52.236;-0.892;2023-03-03T01:59:12;101997.52;;;5.14;74.11
62928;BME280;51070;52.236;-0.892;2023-03-03T02:01:38;101994.90;;;5.14;73.94
62928;BME280;51070;52.236;-0.892;2023-03-03T02:04:05;102003.32;;;5.16;74.02
62928;BME280;51070;52.236;-0.892;2023-03-03T02:06:32;102003.04;;;5.17;73.85
62928;BME280;51070;52.236;-0.892;2023-03-03T02:09:08;102002.61;;;5.16;74.08
62928;BME280;51070;52.236;-0.892;2023-03-03T02:11:36;102002.15;;;5.14;74.00
62928;BME280;51070;52.236;-0.892;2023-03-03T02:14:02;102001.04;;;5.13;73.81
62928;BME280;51070;52.236;-0.892;2023-03-03T02:16:27;102002.17;;;5.10;73.71
62928;BME280;51070;52.236;-0.892;2023-03-03T02:18:53;102004.98;;;5.06;73.96
62928;BME280;51070;52.236;-0.892;2023-03-03T02:21:19;102005.83;;;5.03;74.10
62928;BME280;51070;52.236;-0.892;2023-03-03T02:26:26;102009.67;;;5.02;74.41
62928;BME280;51070;52.236;-0.892;2023-03-03T02:28:52;102008.33;;;5.03;74.39
62928;BME280;51070;52.236;-0.892;2023-03-03T02:31:19;102009.47;;;5.04;74.37
62928;BME280;51070;52.236;-0.892;2023-03-03T02:33:46;102010.19;;;5.04;74.48
62928;BME280;51070;52.236;-0.892;2023-03-03T02:36:12;102008.30;;;5.06;74.49
62928;BME280;51070;52.236;-0.892;2023-03-03T02:38:40;102006.11;;;5.07;74.59
62928;BME280;51070;52.236;-0.892;2023-03-03T02:44:04;102004.92;;;5.12;74.77
62928;BME280;51070;52.236;-0.892;2023-03-03T02:46:32;102005.90;;;5.14;74.65
62928;BME280;51070;52.236;-0.892;2023-03-03T02:48:58;102008.88;;;5.15;74.60
62928;BME280;51070;52.236;-0.892;2023-03-03T02:51:23;102009.40;;;5.15;74.47
62928;BME280;51070;52.236;-0.892;2023-03-03T02:53:48;102006.23;;;5.14;74.61
62928;BME280;51070;52.236;-0.892;2023-03-03T02:56:14;102009.06;;;5.13;74.68
62928;BME280;51070;52.236;-0.892;2023-03-03T02:58:39;102012.30;;;5.10;74.67
62928;BME280;51070;52.236;-0.892;2023-03-03T03:01:05;102010.54;;;5.07;74.63
62928;BME280;51070;52.236;-0.892;2023-03-03T03:03:30;102008.25;;;5.04;74.90
62928;BME280;51070;52.236;-0.892;2023-03-03T03:05:56;102006.67;;;5.01;75.04
62928;BME280;51070;52.236;-0.892;2023-03-03T03:08:21;102008.78;;;4.99;75.16
62928;BME280;51070;52.236;-0.892;2023-03-03T03:10:47;102005.23;;;4.98;75.15
62928;BME280;51070;52.236;-0.892;2023-03-03T03:13:13;102007.54;;;4.97;75.21
62928;BME280;51070;52.236;-0.892;2023-03-03T03:15:38;102002.30;;;4.95;75.16
62928;BME280;51070;52.236;-0.892;2023-03-03T03:18:03;102008.55;;;4.94;75.19
62928;BME280;51070;52.236;-0.892;2023-03-03T03:20:28;102001.80;;;4.95;75.35
62928;BME280;51070;52.236;-0.892;2023-03-03T03:22:54;102001.75;;;4.97;75.27
62928;BME280;51070;52.236;-0.892;2023-03-03T03:25:19;102006.81;;;4.98;75.18
62928;BME280;51070;52.236;-0.892;2023-03-03T03:27:44;102006.27;;;5.00;75.10
62928;BME280;51070;52.236;-0.892;2023-03-03T03:30:10;102009.24;;;5.03;75.06
62928;BME280;51070;52.236;-0.892;2023-03-03T03:32:35;102009.73;;;5.05;75.04
62928;BME280;51070;52.236;-0.892;2023-03-03T03:35:01;102008.39;;;5.05;74.95
62928;BME280;51070;52.236;-0.892;2023-03-03T03:37:26;102005.33;;;5.06;74.89
62928;BME280;51070;52.236;-0.892;2023-03-03T03:39:51;102005.00;;;5.04;74.61
62928;BME280;51070;52.236;-0.892;2023-03-03T03:42:18;102005.17;;;5.01;74.62
62928;BME280;51070;52.236;-0.892;2023-03-03T03:44:43;102008.05;;;5.01;74.76
62928;BME280;51070;52.236;-0.892;2023-03-03T03:47:08;102008.55;;;4.99;74.53
62928;BME280;51070;52.236;-0.892;2023-03-03T03:49:33;102005.38;;;4.95;74.59
62928;BME280;51070;52.236;-0.892;2023-03-03T03:51:59;102003.63;;;4.92;74.90
62928;BME280;51070;52.236;-0.892;2023-03-03T03:54:24;102002.19;;;4.89;74.92
62928;BME280;51070;52.236;-0.892;2023-03-03T03:56:49;102008.02;;;4.89;75.26
62928;BME280;51070;52.236;-0.892;2023-03-03T03:59:15;102006.02;;;4.90;75.26
62928;BME280;51070;52.236;-0.892;2023-03-03T04:01:40;102000.04;;;4.90;75.32
62928;BME280;51070;52.236;-0.892;2023-03-03T04:04:05;101999.92;;;4.91;75.34
62928;BME280;51070;52.236;-0.892;2023-03-03T04:06:31;102000.61;;;4.93;75.39
62928;BME280;51070;52.236;-0.892;2023-03-03T04:08:56;101999.15;;;4.97;75.46
62928;BME280;51070;52.236;-0.892;2023-03-03T04:11:21;101998.11;;;4.99;75.39
62928;BME280;51070;52.236;-0.892;2023-03-03T04:13:47;101998.76;;;5.00;75.37
62928;BME280;51070;52.236;-0.892;2023-03-03T04:16:12;101996.94;;;5.01;75.54
62928;BME280;51070;52.236;-0.892;2023-03-03T04:18:37;101994.09;;;5.02;75.63
62928;BME280;51070;52.236;-0.892;2023-03-03T04:21:02;101994.38;;;5.01;74.94
62928;BME280;51070;52.236;-0.892;2023-03-03T04:23:28;101996.42;;;4.99;74.97
62928;BME280;51070;52.236;-0.892;2023-03-03T04:25:53;101992.23;;;4.96;75.19
62928;BME280;51070;52.236;-0.892;2023-03-03T04:28:18;101993.74;;;4.93;75.23
62928;BME280;51070;52.236;-0.892;2023-03-03T04:30:44;101993.73;;;4.91;75.27
62928;BME280;51070;52.236;-0.892;2023-03-03T04:33:09;101996.45;;;4.88;75.53
62928;BME280;51070;52.236;-0.892;2023-03-03T04:35:34;101996.14;;;4.86;75.70
62928;BME280;51070;52.236;-0.892;2023-03-03T04:38:00;102002.70;;;4.85;76.10
62928;BME280;51070;52.236;-0.892;2023-03-03T04:40:25;102003.94;;;4.85;75.98
62928;BME280;51070;52.236;-0.892;2023-03-03T04:42:50;102007.80;;;4.84;76.08
62928;BME280;51070;52.236;-0.892;2023-03-03T04:45:16;102004.61;;;4.83;75.99
62928;BME280;51070;52.236;-0.892;2023-03-03T04:47:41;102007.95;;;4.82;76.14
62928;BME280;51070;52.236;-0.892;2023-03-03T04:50:07;102007.36;;;4.83;76.05
62928;BME280;51070;52.236;-0.892;2023-03-03T04:52:33;102017.55;;;4.84;76.39
62928;BME280;51070;52.236;-0.892;2023-03-03T04:54:58;102014.42;;;4.86;76.31
62928;BME280;51070;52.236;-0.892;2023-03-03T04:57:24;102010.47;;;4.88;76.34
62928;BME280;51070;52.236;-0.892;2023-03-03T04:59:49;102009.16;;;4.91;76.50
62928;BME280;51070;52.236;-0.892;2023-03-03T05:02:15;102008.65;;;4.93;76.29
62928;BME280;51070;52.236;-0.892;2023-03-03T05:04:41;102011.23;;;4.93;76.25
62928;BME280;51070;52.236;-0.892;2023-03-03T05:07:07;102008.85;;;4.94;76.28
62928;BME280;51070;52.236;-0.892;2023-03-03T05:09:32;102011.20;;;4.93;76.18
62928;BME280;51070;52.236;-0.892;2023-03-03T05:11:57;102011.03;;;4.91;76.09
62928;BME280;51070;52.236;-0.892;2023-03-03T05:14:23;102009.34;;;4.89;76.35
62928;BME280;51070;52.236;-0.892;2023-03-03T05:16:48;102009.27;;;4.85;76.32
62928;BME280;51070;52.236;-0.892;2023-03-03T05:19:13;102015.73;;;4.83;76.39
62928;BME280;51070;52.236;-0.892;2023-03-03T05:21:39;102019.14;;;4.80;76.40
62928;BME280;51070;52.236;-0.892;2023-03-03T05:24:10;102018.23;;;4.77;76.48
62928;BME280;51070;52.236;-0.892;2023-03-03T05:26:37;102019.09;;;4.75;76.55
62928;BME280;51070;52.236;-0.892;2023-03-03T05:29:02;102016.82;;;4.75;76.75
62928;BME280;51070;52.236;-0.892;2023-03-03T05:31:28;102017.46;;;4.74;76.66
62928;BME280;51070;52.236;-0.892;2023-03-03T05:33:53;102019.11;;;4.73;76.84
62928;BME280;51070;52.236;-0.892;2023-03-03T05:36:19;102019.23;;;4.72;76.87
62928;BME280;51070;52.236;-0.892;2023-03-03T05:38:44;102021.77;;;4.72;76.74
62928;BME280;51070;52.236;-0.892;2023-03-03T05:41:09;102017.16;;;4.73;76.81
62928;BME280;51070;52.236;-0.892;2023-03-03T05:43:35;102021.73;;;4.72;76.75
62928;BME280;51070;52.236;-0.892;2023-03-03T05:46:01;102020.96;;;4.73;76.87
62928;BME280;51070;52.236;-0.892;2023-03-03T05:48:27;102021.95;;;4.75;76.86
62928;BME280;51070;52.236;-0.892;2023-03-03T05:50:53;102018.50;;;4.77;76.80
62928;BME280;51070;52.236;-0.892;2023-03-03T05:53:18;102020.53;;;4.78;76.56
62928;BME280;51070;52.236;-0.892;2023-03-03T05:55:43;102021.16;;;4.82;76.61
62928;BME280;51070;52.236;-0.892;2023-03-03T05:58:08;102024.34;;;4.83;76.33
62928;BME280;51070;52.236;-0.892;2023-03-03T06:00:34;102024.29;;;4.83;76.11
62928;BME280;51070;52.236;-0.892;2023-03-03T06:02:59;102024.56;;;4.82;75.92
62928;BME280;51070;52.236;-0.892;2023-03-03T06:05:24;102022.20;;;4.78;75.72
62928;BME280;51070;52.236;-0.892;2023-03-03T06:07:50;102020.54;;;4.76;75.80
62928;BME280;51070;52.236;-0.892;2023-03-03T06:10:15;102023.33;;;4.74;75.37
62928;BME280;51070;52.236;-0.892;2023-03-03T06:12:40;102023.89;;;4.73;75.43
62928;BME280;51070;52.236;-0.892;2023-03-03T06:15:06;102025.85;;;4.72;75.41
62928;BME280;51070;52.236;-0.892;2023-03-03T06:17:32;102024.56;;;4.71;75.18
62928;BME280;51070;52.236;-0.892;2023-03-03T06:19:57;102025.83;;;4.69;75.26
62928;BME280;51070;52.236;-0.892;2023-03-03T06:22:22;102025.66;;;4.67;75.22
62928;BME280;51070;52.236;-0.892;2023-03-03T06:24:48;102027.23;;;4.65;75.24
62928;BME280;51070;52.236;-0.892;2023-03-03T06:27:13;102029.92;;;4.64;75.61
62928;BME280;51070;52.236;-0.892;2023-03-03T06:29:38;102030.17;;;4.65;75.63
62928;BME280;51070;52.236;-0.892;2023-03-03T06:32:04;102032.11;;;4.66;75.48
62928;BME280;51070;52.236;-0.892;2023-03-03T06:34:29;102034.29;;;4.68;75.70
62928;BME280;51070;52.236;-0.892;2023-03-03T06:36:54;102033.86;;;4.69;75.67
62928;BME280;51070;52.236;-0.892;2023-03-03T06:39:21;102033.42;;;4.72;75.89
62928;BME280;51070;52.236;-0.892;2023-03-03T06:41:46;102031.73;;;4.75;75.76
62928;BME280;51070;52.236;-0.892;2023-03-03T06:44:11;102036.79;;;4.76;75.74
62928;BME280;51070;52.236;-0.892;2023-03-03T06:46:36;102035.98;;;4.77;75.85
62928;BME280;51070;52.236;-0.892;2023-03-03T06:49:02;102036.90;;;4.75;75.98
62928;BME280;51070;52.236;-0.892;2023-03-03T06:51:32;102043.54;;;4.75;76.17
62928;BME280;51070;52.236;-0.892;2023-03-03T06:54:00;102049.14;;;4.74;76.49
62928;BME280;51070;52.236;-0.892;2023-03-03T06:56:26;102048.29;;;4.70;77.03
62928;BME280;51070;52.236;-0.892;2023-03-03T06:58:55;102053.83;;;4.64;77.94
62928;BME280;51070;52.236;-0.892;2023-03-03T07:01:21;102049.96;;;4.58;78.95
62928;BME280;51070;52.236;-0.892;2023-03-03T07:03:46;102059.13;;;4.52;79.78
62928;BME280;51070;52.236;-0.892;2023-03-03T07:08:46;102062.23;;;4.44;81.35
62928;BME280;51070;52.236;-0.892;2023-03-03T07:11:13;102060.16;;;4.44;81.93
62928;BME280;51070;52.236;-0.892;2023-03-03T07:13:41;102063.10;;;4.44;82.37
62928;BME280;51070;52.236;-0.892;2023-03-03T07:16:10;102064.91;;;4.43;82.48
62928;BME280;51070;52.236;-0.892;2023-03-03T07:18:36;102066.41;;;4.45;83.20
62928;BME280;51070;52.236;-0.892;2023-03-03T07:21:16;102070.75;;;4.46;83.16
62928;BME280;51070;52.236;-0.892;2023-03-03T07:23:42;102071.11;;;4.46;83.36
62928;BME280;51070;52.236;-0.892;2023-03-03T07:26:12;102075.83;;;4.47;83.87
62928;BME280;51070;52.236;-0.892;2023-03-03T07:28:41;102075.60;;;4.49;83.99
62928;BME280;51070;52.236;-0.892;2023-03-03T07:33:48;102076.23;;;4.52;84.67
62928;BME280;51070;52.236;-0.892;2023-03-03T07:36:26;102078.31;;;4.52;84.74
62928;BME280;51070;52.236;-0.892;2023-03-03T07:38:54;102078.31;;;4.55;84.87
62928;BME280;51070;52.236;-0.892;2023-03-03T07:41:19;102081.23;;;4.59;85.10
62928;BME280;51070;52.236;-0.892;2023-03-03T07:43:48;102083.84;;;4.62;85.19
62928;BME280;51070;52.236;-0.892;2023-03-03T07:46:29;102086.00;;;4.66;85.42
62928;BME280;51070;52.236;-0.892;2023-03-03T07:48:55;102086.38;;;4.68;85.17
62928;BME280;51070;52.236;-0.892;2023-03-03T07:51:22;102091.96;;;4.70;85.07
62928;BME280;51070;52.236;-0.892;2023-03-03T07:56:36;102091.45;;;4.70;85.04
62928;BME280;51070;52.236;-0.892;2023-03-03T07:59:02;102096.42;;;4.70;85.42
62928;BME280;51070;52.236;-0.892;2023-03-03T08:01:40;102097.59;;;4.76;85.50
62928;BME280;51070;52.236;-0.892;2023-03-03T08:04:17;102102.14;;;4.88;85.39
62928;BME280;51070;52.236;-0.892;2023-03-03T08:06:44;102102.23;;;5.03;85.31
62928;BME280;51070;52.236;-0.892;2023-03-03T08:11:43;102104.77;;;5.27;84.42
62928;BME280;51070;52.236;-0.892;2023-03-03T08:14:11;102106.98;;;5.40;83.96
62928;BME280;51070;52.236;-0.892;2023-03-03T08:16:39;102106.94;;;5.56;83.50
62928;BME280;51070;52.236;-0.892;2023-03-03T08:19:04;102106.70;;;5.69;83.27
62928;BME280;51070;52.236;-0.892;2023-03-03T08:21:30;102108.88;;;5.82;83.00
62928;BME280;51070;52.236;-0.892;2023-03-03T08:23:56;102107.56;;;5.92;82.35
62928;BME280;51070;52.236;-0.892;2023-03-03T08:26:22;102111.65;;;6.03;81.72
62928;BME280;51070;52.236;-0.892;2023-03-03T08:28:48;102111.75;;;6.14;81.11
62928;BME280;51070;52.236;-0.892;2023-03-03T08:31:13;102113.58;;;6.27;80.67
62928;BME280;51070;52.236;-0.892;2023-03-03T08:33:39;102115.91;;;6.31;79.77
62928;BME280;51070;52.236;-0.892;2023-03-03T08:36:05;102116.90;;;6.33;79.50
62928;BME280;51070;52.236;-0.892;2023-03-03T08:38:31;102121.65;;;6.39;79.28
62928;BME280;51070;52.236;-0.892;2023-03-03T08:40:57;102124.18;;;6.44;78.86
62928;BME280;51070;52.236;-0.892;2023-03-03T08:43:22;102124.98;;;6.48;78.72
62928;BME280;51070;52.236;-0.892;2023-03-03T08:45:49;102126.41;;;6.46;78.81
62928;BME280;51070;52.236;-0.892;2023-03-03T08:48:16;102128.05;;;6.43;78.79
62928;BME280;51070;52.236;-0.892;2023-03-03T08:50:42;102129.73;;;6.43;78.80
62928;BME280;51070;52.236;-0.892;2023-03-03T08:53:08;102130.36;;;6.44;78.65
62928;BME280;51070;52.236;-0.892;2023-03-03T08:55:33;102130.52;;;6.44;78.87
62928;BME280;51070;52.236;-0.892;2023-03-03T08:57:59;102128.01;;;6.47;78.56
62928;BME280;51070;52.236;-0.892;2023-03-03T09:00:24;102129.77;;;6.50;78.37
62928;BME280;51070;52.236;-0.892;2023-03-03T09:02:51;102129.49;;;6.46;78.08
62928;BME280;51070;52.236;-0.892;2023-03-03T09:05:16;102127.67;;;6.40;78.11
62928;BME280;51070;52.236;-0.892;2023-03-03T09:07:42;102127.28;;;6.49;77.93
62928;BME280;51070;52.236;-0.892;2023-03-03T09:10:08;102130.13;;;6.60;77.56
62928;BME280;51070;52.236;-0.892;2023-03-03T09:12:34;102131.66;;;6.60;77.39
62928;BME280;51070;52.236;-0.892;2023-03-03T09:15:12;102130.44;;;6.67;77.14
62928;BME280;51070;52.236;-0.892;2023-03-03T09:17:39;102136.45;;;6.76;77.03
62928;BME280;51070;52.236;-0.892;2023-03-03T09:20:38;102133.42;;;6.80;76.66
62928;BME280;51070;52.236;-0.892;2023-03-03T09:22:57;102133.28;;;6.90;76.79
62928;BME280;51070;52.236;-0.892;2023-03-03T09:25:32;102126.80;;;7.08;76.82
62928;BME280;51070;52.236;-0.892;2023-03-03T09:27:59;102127.30;;;7.28;76.63
62928;BME280;51070;52.236;-0.892;2023-03-03T09:30:33;102127.50;;;7.49;75.92
62928;BME280;51070;52.236;-0.892;2023-03-03T09:33:00;102127.85;;;7.54;75.10
62928;BME280;51070;52.236;-0.892;2023-03-03T09:37:58;102127.11;;;7.33;74.56
62928;BME280;51070;52.236;-0.892;2023-03-03T09:53:22;102137.64;;;7.18;74.16
62928;BME280;51070;52.236;-0.892;2023-03-03T09:56:04;102139.98;;;7.25;74.44
62928;BME280;51070;52.236;-0.892;2023-03-03T10:04:05;102147.66;;;7.44;72.90
62928;BME280;51070;52.236;-0.892;2023-03-03T10:06:41;102147.50;;;7.44;72.73
62928;BME280;51070;52.236;-0.892;2023-03-03T10:11:55;102143.55;;;7.45;72.08
62928;BME280;51070;52.236;-0.892;2023-03-03T10:17:14;102141.90;;;7.46;71.41
62928;BME280;51070;52.236;-0.892;2023-03-03T10:22:43;102146.98;;;7.60;71.23
62928;BME280;51070;52.236;-0.892;2023-03-03T10:39:09;102146.05;;;8.09;69.34
62928;BME280;51070;52.236;-0.892;2023-03-03T10:41:59;102151.66;;;7.94;69.47
62928;BME280;51070;52.236;-0.892;2023-03-03T10:47:20;102153.79;;;7.74;69.54
62928;BME280;51070;52.236;-0.892;2023-03-03T10:50:09;102155.65;;;7.66;69.75
62928;BME280;51070;52.236;-0.892;2023-03-03T10:52:38;102159.51;;;7.59;70.09
62928;BME280;51070;52.236;-0.892;2023-03-03T11:05:26;102158.39;;;7.86;69.29
62928;BME280;51070;52.236;-0.892;2023-03-03T11:20:40;102170.56;;;7.37;69.26
62928;BME280;51070;52.236;-0.892;2023-03-03T11:23:51;102170.61;;;7.35;69.43
62928;BME280;51070;52.236;-0.892;2023-03-03T11:30:57;102169.45;;;7.43;68.79
62928;BME280;51070;52.236;-0.892;2023-03-03T11:33:34;102172.05;;;7.49;68.92
62928;BME280;51070;52.236;-0.892;2023-03-03T11:38:44;102173.31;;;7.50;68.05
62928;BME280;51070;52.236;-0.892;2023-03-03T11:43:38;102172.10;;;7.35;68.38
62928;BME280;51070;52.236;-0.892;2023-03-03T11:46:17;102175.89;;;7.27;68.91
62928;BME280;51070;52.236;-0.892;2023-03-03T11:48:49;102176.00;;;7.26;68.57
62928;BME280;51070;52.236;-0.892;2023-03-03T11:58:53;102173.03;;;7.48;67.76
62928;BME280;51070;52.236;-0.892;2023-03-03T12:01:26;102172.33;;;7.43;67.80
62928;BME280;51070;52.236;-0.892;2023-03-03T12:17:02;102171.62;;;7.89;66.23
62928;BME280;51070;52.236;-0.892;2023-03-03T12:27:18;102165.89;;;7.70;64.92
62928;BME280;51070;52.236;-0.892;2023-03-03T12:32:38;102163.36;;;7.73;64.44
62928;BME280;51070;52.236;-0.892;2023-03-03T12:40:40;102160.13;;;7.74;63.84
62928;BME280;51070;52.236;-0.892;2023-03-03T12:46:10;102152.34;;;7.78;63.67
62928;BME280;51070;52.236;-0.892;2023-03-03T12:48:42;102150.64;;;7.73;63.89
62928;BME280;51070;52.236;-0.892;2023-03-03T12:51:25;102150.42;;;7.68;63.79
62928;BME280;51070;52.236;-0.892;2023-03-03T12:56:28;102156.15;;;7.43;65.15
62928;BME280;51070;52.236;-0.892;2023-03-03T13:06:39;102148.98;;;7.24;66.44
62928;BME280;51070;52.236;-0.892;2023-03-03T13:09:27;102147.86;;;7.27;66.50
62928;BME280;51070;52.236;-0.892;2023-03-03T13:15:22;102143.30;;;7.48;66.02
62928;BME280;51070;52.236;-0.892;2023-03-03T13:17:29;102140.55;;;7.56;65.88
62928;BME280;51070;52.236;-0.892;2023-03-03T13:20:44;102136.72;;;7.61;65.75
62928;BME280;51070;52.236;-0.892;2023-03-03T13:25:27;102135.96;;;7.65;65.38
62928;BME280;51070;52.236;-0.892;2023-03-03T13:27:55;102135.18;;;7.61;65.40
62928;BME280;51070;52.236;-0.892;2023-03-03T13:30:32;102133.92;;;7.60;65.47
62928;BME280;51070;52.236;-0.892;2023-03-03T13:33:08;102129.12;;;7.58;65.42
62928;BME280;51070;52.236;-0.892;2023-03-03T13:35:43;102131.77;;;7.51;64.22
62928;BME280;51070;52.236;-0.892;2023-03-03T13:38:17;102127.58;;;7.42;64.44
62928;BME280;51070;52.236;-0.892;2023-03-03T13:40:46;102126.01;;;7.34;64.78
62928;BME280;51070;52.236;-0.892;2023-03-03T13:45:49;102125.50;;;7.17;66.09
62928;BME280;51070;52.236;-0.892;2023-03-03T13:53:24;102118.22;;;7.11;67.22
62928;BME280;51070;52.236;-0.892;2023-03-03T13:55:55;102113.83;;;7.25;66.87
62928;BME280;51070;52.236;-0.892;2023-03-03T13:58:36;102111.81;;;7.43;66.86
62928;BME280;51070;52.236;-0.892;2023-03-03T14:06:34;102106.54;;;7.78;66.29
62928;BME280;51070;52.236;-0.892;2023-03-03T14:11:46;102114.72;;;7.69;65.66
62928;BME280;51070;52.236;-0.892;2023-03-03T14:16:46;102115.79;;;7.59;66.07
62928;BME280;51070;52.236;-0.892;2023-03-03T14:19:17;102116.59;;;7.56;66.12
62928;BME280;51070;52.236;-0.892;2023-03-03T14:24:23;102119.58;;;7.51;66.46
62928;BME280;51070;52.236;-0.892;2023-03-03T14:31:43;102114.18;;;7.50;66.69
62928;BME280;51070;52.236;-0.892;2023-03-03T14:34:14;102119.38;;;7.51;67.12
62928;BME280;51070;52.236;-0.892;2023-03-03T14:36:51;102115.58;;;7.53;67.43
62928;BME280;51070;52.236;-0.892;2023-03-03T14:39:32;102113.01;;;7.56;67.37
62928;BME280;51070;52.236;-0.892;2023-03-03T14:41:58;102114.19;;;7.55;67.44
62928;BME280;51070;52.236;-0.892;2023-03-03T14:49:35;102108.56;;;7.36;67.67
62928;BME280;51070;52.236;-0.892;2023-03-03T14:52:10;102107.96;;;7.30;67.75
62928;BME280;51070;52.236;-0.892;2023-03-03T14:54:43;102111.75;;;7.25;68.20
62928;BME280;51070;52.236;-0.892;2023-03-03T14:57:19;102115.04;;;7.20;68.69
62928;BME280;51070;52.236;-0.892;2023-03-03T14:59:57;102116.52;;;7.14;69.26
62928;BME280;51070;52.236;-0.892;2023-03-03T15:02:28;102115.02;;;7.09;69.57
62928;BME280;51070;52.236;-0.892;2023-03-03T15:05:14;102116.67;;;7.06;69.97
62928;BME280;51070;52.236;-0.892;2023-03-03T15:07:41;102112.00;;;7.03;70.06
62928;BME280;51070;52.236;-0.892;2023-03-03T15:10:07;102110.08;;;7.02;70.15
62928;BME280;51070;52.236;-0.892;2023-03-03T15:30:36;102079.77;;;7.27;68.57
62928;BME280;51070;52.236;-0.892;2023-03-03T15:33:04;102078.10;;;7.33;68.18
62928;BME280;51070;52.236;-0.892;2023-03-03T15:40:52;102075.35;;;7.43;65.75
62928;BME280;51070;52.236;-0.892;2023-03-03T15:43:35;102070.36;;;7.41;64.90
62928;BME280;51070;52.236;-0.892;2023-03-03T15:48:42;102066.20;;;7.42;64.48
62928;BME280;51070;52.236;-0.892;2023-03-03T15:53:48;102059.88;;;7.48;64.86
62928;BME280;51070;52.236;-0.892;2023-03-03T15:56:19;102054.08;;;7.52;64.71
62928;BME280;51070;52.236;-0.892;2023-03-03T16:01:32;102058.61;;;7.55;64.31
62928;BME280;51070;52.236;-0.892;2023-03-03T16:04:00;102056.14;;;7.54;64.29
62928;BME280;51070;52.236;-0.892;2023-03-03T16:09:02;102052.40;;;7.58;64.11
62928;BME280;51070;52.236;-0.892;2023-03-03T16:11:52;102053.56;;;7.57;64.23
62928;BME280;51070;52.236;-0.892;2023-03-03T16:19:24;102046.70;;;7.54;64.56
62928;BME280;51070;52.236;-0.892;2023-03-03T16:32:23;102059.69;;;7.43;64.66
62928;BME280;51070;52.236;-0.892;2023-03-03T16:39:51;102058.27;;;7.37;64.86
62928;BME280;51070;52.236;-0.892;2023-03-03T16:47:58;102059.77;;;7.29;64.91
62928;BME280;51070;52.236;-0.892;2023-03-03T16:53:02;102061.12;;;7.21;65.16
62928;BME280;51070;52.236;-0.892;2023-03-03T16:55:29;102063.83;;;7.15;65.16
62928;BME280;51070;52.236;-0.892;2023-03-03T16:57:58;102063.48;;;7.12;65.52
62928;BME280;51070;52.236;-0.892;2023-03-03T17:00:28;102059.51;;;7.07;65.52
62928;BME280;51070;52.236;-0.892;2023-03-03T17:05:28;102066.00;;;6.96;66.04
62928;BME280;51070;52.236;-0.892;2023-03-03T17:10:49;102076.69;;;6.92;66.57
62928;BME280;51070;52.236;-0.892;2023-03-03T17:30:44;102090.39;;;6.73;66.24
62928;BME280;51070;52.236;-0.892;2023-03-03T17:35:48;102093.82;;;6.66;66.03